Time;durP1;ratioP1;P1;durP2;ratioP2;P2;SDS_P1;SDS_P2;PMS_P1;PMS_P2;Temp;Humidity;BMP_temperature;BMP_pressure;BME280_temperature;BME280_humidity;BME280_pressure;Samples;Min_cycle;Max_cycle;Signal;HPM_P1;HPM_P2
2023/04/17 00:01:30;;;;;;;50.33;22.98;;;8.50;99.90;;;;;;5093619;28;20442;-77
2023/04/17 00:03:56;;;;;;;44.95;22.85;;;9.20;99.90;;;;;;5093573;28;20105;-77
2023/04/17 00:06:22;;;;;;;49.60;23.17;;;8.40;99.90;;;;;;5093230;28;20093;-77
2023/04/17 00:08:48;;;;;;;46.85;22.48;;;9.10;99.90;;;;;;5093646;28;20435;-77
2023/04/17 00:11:14;;;;;;;44.95;22.65;;;8.50;99.90;;;;;;5093573;28;20044;-78
2023/04/17 00:13:40;;;;;;;47.45;22.92;;;8.50;99.90;;;;;;5093507;28;20040;-77
2023/04/17 00:16:09;;;;;;;50.30;23.42;;;8.50;99.90;;;;;;5093806;28;20384;-77
2023/04/17 00:18:35;;;;;;;49.13;22.55;;;8.40;99.90;;;;;;5093537;28;20090;-77
2023/04/17 00:21:00;;;;;;;48.67;24.30;;;9.10;99.90;;;;;;5093489;28;20487;-78
2023/04/17 00:23:26;;;;;;;50.58;22.35;;;8.80;99.90;;;;;;5092391;28;20036;-77
2023/04/17 00:25:52;;;;;;;52.08;23.55;;;8.50;99.90;;;;;;5093466;28;20047;-78
2023/04/17 00:28:18;;;;;;;45.13;21.98;;;8.40;99.90;;;;;;5093416;28;20084;-78
2023/04/17 00:30:43;;;;;;;61.92;26.40;;;8.30;99.90;;;;;;5093046;28;20480;-77
2023/04/17 00:33:09;;;;;;;54.75;23.95;;;8.40;99.90;;;;;;5093316;28;20032;-77
2023/04/17 00:35:34;;;;;;;58.05;22.20;;;8.30;99.90;;;;;;5092365;28;20113;-78
2023/04/17 00:38:00;;;;;;;53.20;23.42;;;8.40;99.90;;;;;;5093239;28;20058;-76
2023/04/17 00:40:26;;;;;;;54.80;23.05;;;8.00;99.90;;;;;;5093301;28;20040;-77
2023/04/17 00:42:51;;;;;;;48.30;22.00;;;8.10;99.90;;;;;;5093259;28;20083;-78
2023/04/17 00:45:20;;;;;;;57.97;24.58;;;8.30;99.90;;;;;;5093171;28;20139;-78
2023/04/17 00:47:47;;;;;;;49.88;24.45;;;8.30;99.90;;;;;;5093676;28;20098;-77
2023/04/17 00:50:13;;;;;;;58.88;24.60;;;8.40;99.90;;;;;;5093123;28;20091;-77
2023/04/17 00:52:39;;;;;;;60.88;25.83;;;8.10;99.90;;;;;;5093177;28;20083;-77
2023/04/17 00:55:06;;;;;;;60.63;25.73;;;8.40;99.90;;;;;;5093168;28;20047;-77
2023/04/17 00:57:33;;;;;;;54.33;24.13;;;8.40;99.90;;;;;;5096192;28;20039;-77
2023/04/17 00:59:58;;;;;;;;;;;8.40;99.90;;;;;;5097074;28;20048;-77
2023/04/17 01:02:25;;;;;;;57.90;24.83;;;8.40;99.90;;;;;;5096379;28;20279;-77
2023/04/17 01:04:51;;;;;;;58.00;25.33;;;8.50;99.90;;;;;;5096418;28;20472;-77
2023/04/17 01:07:17;;;;;;;56.00;23.77;;;8.70;99.90;;;;;;5096579;28;20040;-77
2023/04/17 01:09:42;;;;;;;57.88;24.38;;;8.40;99.90;;;;;;5096528;28;20046;-77
2023/04/17 01:12:15;;;;;;;53.17;25.10;;;8.70;99.90;;;;;;5096486;28;20043;-77
2023/04/17 01:14:41;;;;;;;59.83;26.63;;;8.40;99.90;;;;;;5096225;28;20048;-77
2023/04/17 01:17:06;;;;;;;62.70;25.42;;;8.40;99.90;;;;;;5096427;28;20044;-77
2023/04/17 01:19:32;;;;;;;70.40;27.42;;;8.40;99.90;;;;;;5096153;28;20101;-77
2023/04/17 01:21:58;;;;;;;60.72;26.15;;;8.40;99.90;;;;;;5096291;28;20121;-76
2023/04/17 01:24:23;;;;;;;60.88;25.73;;;8.40;99.90;;;;;;5096252;28;20112;-76
2023/04/17 01:26:49;;;;;;;58.40;25.52;;;8.40;99.90;;;;;;5096120;28;20032;-76
2023/04/17 01:29:14;;;;;;;60.50;25.08;;;9.10;99.90;;;;;;5096148;28;20040;-76
2023/04/17 01:31:40;;;;;;;58.90;24.40;;;8.40;99.90;;;;;;5096079;28;20052;-77
2023/04/17 01:34:06;;;;;;;60.58;26.30;;;8.20;99.90;;;;;;5096393;28;20082;-77
2023/04/17 01:36:31;;;;;;;58.00;25.85;;;8.40;99.90;;;;;;5096026;28;20048;-77
2023/04/17 01:38:57;;;;;;;63.83;27.08;;;8.30;99.90;;;;;;5096018;28;20043;-77
2023/04/17 01:41:23;;;;;;;55.70;24.77;;;9.00;99.90;;;;;;5095969;28;20076;-77
2023/04/17 01:43:49;;;;;;;53.88;24.38;;;8.50;99.90;;;;;;5095858;28;20127;-77
2023/04/17 01:46:14;;;;;;;58.95;26.42;;;8.30;99.90;;;;;;5096281;28;20503;-77
2023/04/17 01:48:40;;;;;;;53.17;23.17;;;8.40;99.90;;;;;;5095897;28;20032;-77
2023/04/17 01:51:06;;;;;;;59.33;23.92;;;8.40;99.90;;;;;;5095439;28;20067;-77
2023/04/17 01:53:32;;;;;;;53.67;23.75;;;8.40;99.90;;;;;;5094625;28;20377;-77
2023/04/17 01:56:00;;;;;;;52.35;24.23;;;8.40;99.90;;;;;;5095976;28;20428;-77
2023/04/17 01:58:26;;;;;;;56.60;24.98;;;8.40;99.90;;;;;;5095653;28;20052;-77
2023/04/17 02:00:51;;;;;;;51.60;24.67;;;8.40;99.90;;;;;;5095675;28;20487;-77
2023/04/17 02:03:17;;;;;;;52.92;24.13;;;8.00;99.90;;;;;;5077533;28;20036;-77
2023/04/17 02:05:46;;;;;;;53.85;23.27;;;8.40;99.90;;;;;;5095499;28;20048;-77
2023/04/17 02:08:15;;;;;;;54.22;24.17;;;8.10;99.90;;;;;;5094244;28;20047;-76
2023/04/17 02:10:41;;;;;;;57.92;24.70;;;8.40;99.90;;;;;;5095424;28;20040;-77
2023/04/17 02:13:08;;;;;;;57.63;24.98;;;8.40;99.90;;;;;;5095186;28;20043;-77
2023/04/17 02:15:35;;;;;;;49.35;24.50;;;8.40;99.90;;;;;;5095308;28;20083;-77
2023/04/17 02:18:00;;;;;;;51.67;24.48;;;8.10;99.90;;;;;;5095243;28;20052;-77
2023/04/17 02:20:26;;;;;;;48.63;23.30;;;8.40;99.90;;;;;;5095057;28;20116;-77
2023/04/17 02:22:52;;;;;;;45.58;21.65;;;8.40;99.90;;;;;;5095192;28;20472;-77
2023/04/17 02:25:17;;;;;;;49.58;23.38;;;9.10;99.90;;;;;;5095067;28;20388;-77
2023/04/17 02:27:43;;;;;;;50.70;23.48;;;8.40;99.90;;;;;;5093879;28;20079;-77
2023/04/17 02:30:09;;;;;;;48.97;23.25;;;8.40;99.90;;;;;;5095033;28;20487;-77
2023/04/17 02:32:35;;;;;;;55.63;24.70;;;8.40;99.90;;;;;;5094799;28;20051;-77
2023/04/17 02:35:00;;;;;;;52.63;23.90;;;8.10;99.90;;;;;;5094758;28;20048;-77
2023/04/17 02:37:26;;;;;;;50.78;24.83;;;8.40;99.90;;;;;;5095102;28;20044;-77
2023/04/17 02:39:53;;;;;;;50.13;25.48;;;8.40;99.90;;;;;;5094845;28;20048;-77
2023/04/17 02:42:18;;;;;;;44.60;23.50;;;8.60;99.90;;;;;;5094780;28;20051;-77
2023/04/17 02:44:45;;;;;;;48.85;23.13;;;8.60;99.90;;;;;;5094716;28;20063;-77
2023/04/17 02:47:11;;;;;;;52.58;24.42;;;8.60;99.90;;;;;;5094702;28;20051;-77
2023/04/17 02:49:37;;;;;;;45.58;22.05;;;8.00;99.90;;;;;;5094213;28;20556;-77
2023/04/17 02:52:03;;;;;;;45.05;20.55;;;8.40;99.90;;;;;;5094803;28;20131;-77
2023/04/17 02:54:29;;;;;;;51.72;24.23;;;8.30;99.90;;;;;;5094462;28;20050;-77
2023/04/17 02:56:57;;;;;;;46.78;22.52;;;8.40;99.90;;;;;;5093384;28;20126;-77
2023/04/17 02:59:26;;;;;;;43.63;22.48;;;8.60;99.90;;;;;;5094163;28;20408;-77
2023/04/17 03:01:52;;;;;;;48.95;24.52;;;8.30;99.90;;;;;;5094539;28;20044;-77
2023/04/17 03:04:18;;;;;;;46.78;23.30;;;8.80;99.90;;;;;;5094389;28;20476;-77
2023/04/17 03:06:43;;;;;;;48.58;22.55;;;8.30;99.90;;;;;;5094218;28;20089;-77
2023/04/17 03:09:13;;;;;;;53.08;23.17;;;9.00;99.90;;;;;;5094314;28;20036;-77
2023/04/17 03:11:39;;;;;;;49.88;24.30;;;8.40;99.90;;;;;;5093304;28;20050;-77
2023/04/17 03:14:05;;;;;;;50.50;23.83;;;8.40;99.90;;;;;;5094123;28;20123;-77
2023/04/17 03:16:30;;;;;;;47.05;23.02;;;8.20;99.90;;;;;;5094130;28;20043;-77
2023/04/17 03:18:56;;;;;;;48.58;21.85;;;8.80;99.90;;;;;;5093830;28;20123;-77
2023/04/17 03:21:21;;;;;;;48.53;24.02;;;8.30;99.90;;;;;;5092952;28;20039;-77
2023/04/17 03:23:47;;;;;;;54.55;24.95;;;8.30;99.90;;;;;;5094125;28;20131;-77
2023/04/17 03:26:13;;;;;;;57.22;24.95;;;8.90;99.90;;;;;;5094048;28;20043;-77
2023/04/17 03:28:38;;;;;;;50.13;24.98;;;7.90;99.90;;;;;;5092692;28;20052;-77
2023/04/17 03:31:05;;;;;;;49.38;23.73;;;8.40;99.90;;;;;;5094075;28;20380;-77
2023/04/17 03:33:30;;;;;;;57.60;25.73;;;8.30;99.90;;;;;;5093910;28;20365;-77
2023/04/17 03:35:56;;;;;;;53.22;23.48;;;8.20;99.90;;;;;;5093953;28;20069;-77
2023/04/17 03:38:22;;;;;;;45.00;21.65;;;8.30;99.90;;;;;;5093887;28;20479;-77
2023/04/17 03:40:47;;;;;;;63.58;25.75;;;8.20;99.90;;;;;;5093996;28;20044;-77
2023/04/17 03:43:13;;;;;;;57.42;24.75;;;8.20;99.90;;;;;;5093824;28;20052;-77
2023/04/17 03:45:38;;;;;;;55.33;23.63;;;8.20;99.90;;;;;;5093839;28;20482;-77
2023/04/17 03:48:04;;;;;;;55.65;25.08;;;8.10;99.90;;;;;;5093770;28;20484;-77
2023/04/17 03:50:30;;;;;;;55.72;24.63;;;8.20;99.90;;;;;;5093739;28;20438;-77
2023/04/17 03:52:56;;;;;;;55.95;24.77;;;8.20;99.90;;;;;;5093829;28;20040;-77
2023/04/17 03:55:21;;;;;;;61.70;25.55;;;8.20;99.90;;;;;;5093284;28;20377;-77
2023/04/17 03:57:49;;;;;;;56.80;25.95;;;8.10;99.90;;;;;;5093585;28;20043;-77
2023/04/17 04:00:16;;;;;;;58.88;26.85;;;8.10;99.90;;;;;;5093648;28;20044;-77
2023/04/17 04:02:41;;;;;;;61.05;25.38;;;8.10;99.90;;;;;;5093720;28;20059;-77
2023/04/17 04:05:07;;;;;;;52.95;24.95;;;8.10;99.90;;;;;;5093458;28;20048;-77
2023/04/17 04:07:32;;;;;;;60.75;25.63;;;8.10;99.90;;;;;;5093745;28;20043;-77
2023/04/17 04:09:58;;;;;;;54.15;24.65;;;8.10;99.90;;;;;;5093632;28;20051;-77
2023/04/17 04:12:24;;;;;;;56.00;23.95;;;7.70;99.90;;;;;;5093511;28;20085;-77
2023/04/17 04:14:49;;;;;;;65.13;26.40;;;8.10;99.90;;;;;;5093841;28;20051;-77
2023/04/17 04:17:15;;;;;;;59.90;26.13;;;8.10;99.90;;;;;;5093535;28;20098;-77
2023/04/17 04:19:42;;;;;;;58.97;25.17;;;8.10;99.90;;;;;;5093810;28;20087;-77
2023/04/17 04:22:09;;;;;;;;;;;8.10;99.90;;;;;;5093844;28;20044;-77
2023/04/17 04:24:35;;;;;;;60.10;26.27;;;8.60;99.90;;;;;;5093347;28;19920;-77
2023/04/17 04:27:03;;;;;;;60.55;26.48;;;8.10;99.90;;;;;;5093068;28;20150;-76
2023/04/17 04:29:29;;;;;;;67.95;27.58;;;8.10;99.90;;;;;;5093368;28;20040;-77
2023/04/17 04:31:54;;;;;;;53.97;25.50;;;8.10;99.90;;;;;;5095911;28;20040;-77
2023/04/17 04:34:24;;;;;;;58.17;24.90;;;8.10;99.90;;;;;;5097164;28;20097;-77
2023/04/17 04:36:49;;;;;;;60.97;27.52;;;8.10;99.90;;;;;;5096921;28;20552;-77
2023/04/17 04:39:19;;;;;;;58.10;25.55;;;8.50;99.90;;;;;;5096971;28;20135;-77
2023/04/17 04:41:46;;;;;;;59.53;27.20;;;8.10;99.90;;;;;;5096935;28;20089;-77
2023/04/17 04:44:11;;;;;;;55.63;25.60;;;8.10;99.90;;;;;;5096964;28;20043;-77
2023/04/17 04:46:37;;;;;;;56.50;25.95;;;8.00;99.90;;;;;;5096904;28;20442;-77
2023/04/17 04:49:02;;;;;;;62.75;26.30;;;8.10;99.90;;;;;;5096727;28;20404;-77
2023/04/17 04:51:30;;;;;;;59.72;25.08;;;8.80;99.90;;;;;;5096923;28;20099;-77
2023/04/17 04:53:56;;;;;;;61.70;27.10;;;8.60;99.90;;;;;;5096873;28;20048;-77
2023/04/17 04:56:22;;;;;;;58.05;25.77;;;8.10;99.90;;;;;;5096457;28;20503;-76
2023/04/17 04:58:47;;;;;;;59.15;24.70;;;8.10;99.90;;;;;;5096855;28;20101;-77
2023/04/17 05:01:13;;;;;;;53.60;25.25;;;7.80;99.90;;;;;;5096691;28;20047;-77
2023/04/17 05:03:39;;;;;;;60.33;26.25;;;8.10;99.90;;;;;;5096773;28;20040;-77
2023/04/17 05:06:05;;;;;;;58.53;21.90;;;8.40;99.90;;;;;;5096695;28;20135;-77
2023/04/17 05:08:31;;;;;;;58.15;25.90;;;8.10;99.90;;;;;;5096403;28;20357;-77
2023/04/17 05:10:57;;;;;;;60.78;26.20;;;7.90;99.90;;;;;;5095452;28;20471;-80
2023/04/17 05:13:26;;;;;;;58.80;25.42;;;8.10;99.90;;;;;;5096139;28;20040;-76
2023/04/17 05:15:51;;;;;;;62.45;25.08;;;8.10;99.90;;;;;;5096387;28;20051;-76
2023/04/17 05:18:17;;;;;;;63.28;27.08;;;8.10;99.90;;;;;;5096387;28;20044;-77
2023/04/17 05:20:42;;;;;;;54.17;23.60;;;8.80;99.90;;;;;;5096537;28;20055;-78
2023/04/17 05:23:08;;;;;;;67.90;25.58;;;8.10;99.90;;;;;;5096281;28;20036;-77
2023/04/17 05:25:34;;;;;;;62.47;26.83;;;8.10;99.90;;;;;;5096205;28;20046;-78
2023/04/17 05:27:59;;;;;;;59.97;26.25;;;8.10;99.90;;;;;;5096414;28;20044;-79
2023/04/17 05:30:25;;;;;;;65.32;27.38;;;8.10;99.90;;;;;;5096127;28;20502;-79
2023/04/17 05:32:52;;;;;;;61.65;25.77;;;8.80;99.90;;;;;;5096174;28;20043;-79
2023/04/17 05:35:18;;;;;;;61.92;26.88;;;7.70;99.90;;;;;;5096104;28;20056;-77
2023/04/17 05:37:43;;;;;;;57.10;25.65;;;8.10;99.90;;;;;;5096101;28;20044;-77
2023/04/17 05:40:09;;;;;;;59.00;25.08;;;8.10;99.90;;;;;;5095968;28;20040;-78
2023/04/17 05:42:35;;;;;;;59.75;24.23;;;8.10;99.90;;;;;;5094335;28;20044;-79
2023/04/17 05:45:00;;;;;;;53.13;24.55;;;8.10;99.90;;;;;;5095928;28;20127;-77
2023/04/17 05:47:26;;;;;;;64.40;27.58;;;8.10;99.90;;;;;;5095560;28;20123;-77
2023/04/17 05:49:56;;;;;;;46.97;20.83;;;8.10;99.90;;;;;;5095735;28;20044;-79
2023/04/17 05:52:22;;;;;;;61.63;25.10;;;8.10;99.90;;;;;;5095706;28;20048;-78
2023/04/17 05:54:48;;;;;;;61.35;25.25;;;7.80;99.90;;;;;;5095635;28;20050;-78
2023/04/17 05:57:13;;;;;;;63.20;25.90;;;8.10;99.90;;;;;;5096185;28;20091;-76
2023/04/17 05:59:39;;;;;;;61.38;25.20;;;8.30;99.90;;;;;;5095609;28;20076;-75
2023/04/17 06:02:06;;;;;;;54.70;24.35;;;8.20;99.90;;;;;;5095617;28;20039;-77
2023/04/17 06:04:31;;;;;;;;;;;8.20;99.90;;;;;;5095789;28;20044;-76
2023/04/17 06:06:57;;;;;;;61.55;25.60;;;8.30;99.90;;;;;;5094211;28;19924;-77
2023/04/17 06:09:23;;;;;;;65.70;27.15;;;8.30;99.90;;;;;;5095369;28;20083;-78
2023/04/17 06:11:48;;;;;;;50.40;22.52;;;8.30;99.90;;;;;;5095294;28;20036;-76
2023/04/17 06:14:17;;;;;;;56.97;24.27;;;8.30;99.90;;;;;;5095477;28;20044;-75
2023/04/17 06:16:43;;;;;;;57.22;25.00;;;8.30;99.90;;;;;;5095438;28;20128;-76
2023/04/17 06:19:08;;;;;;;59.53;26.02;;;8.40;99.90;;;;;;5095168;28;20123;-76
2023/04/17 06:21:34;;;;;;;60.22;24.48;;;8.40;99.90;;;;;;5095199;28;20443;-76
2023/04/17 06:24:00;;;;;;;49.22;23.15;;;8.40;99.90;;;;;;5094972;28;20036;-77
2023/04/17 06:26:25;;;;;;;55.70;24.95;;;8.40;99.90;;;;;;5095568;28;20444;-78
2023/04/17 06:28:51;;;;;;;47.47;23.13;;;8.40;99.90;;;;;;5095256;28;20040;-77
2023/04/17 06:31:17;;;;;;;50.15;22.50;;;8.60;99.90;;;;;;5094690;28;20036;-80
2023/04/17 06:33:42;;;;;;;51.42;23.85;;;8.50;99.90;;;;;;5094951;28;20111;-78
2023/04/17 06:36:08;;;;;;;49.80;22.48;;;8.50;99.90;;;;;;5094931;28;20044;-78
2023/04/17 06:38:33;;;;;;;49.08;24.88;;;8.50;99.90;;;;;;5094695;28;20051;-78
2023/04/17 06:40:59;;;;;;;56.03;23.50;;;9.10;99.90;;;;;;5076781;28;20047;-80
2023/04/17 06:43:25;;;;;;;49.80;22.52;;;7.90;99.90;;;;;;5095197;28;20044;-79
2023/04/17 06:45:50;;;;;;;48.15;23.48;;;8.50;99.90;;;;;;5094737;28;20127;-78
2023/04/17 06:48:16;;;;;;;49.58;23.05;;;8.50;99.90;;;;;;5094548;28;20044;-79
2023/04/17 06:50:41;;;;;;;52.22;22.40;;;8.90;99.90;;;;;;5094804;28;20541;-80
2023/04/17 06:53:07;;;;;;;47.03;22.77;;;7.90;99.90;;;;;;5093977;28;20127;-78
2023/04/17 06:55:32;;;;;;;48.83;22.52;;;8.60;99.90;;;;;;5093411;28;20040;-80
2023/04/17 06:57:59;;;;;;;43.95;21.88;;;8.60;99.90;;;;;;5094170;28;20555;-79
2023/04/17 07:00:25;;;;;;;48.88;22.65;;;8.60;99.90;;;;;;5093341;28;20139;-80
2023/04/17 07:02:50;;;;;;;52.50;23.77;;;8.60;99.90;;;;;;5094672;28;20080;-79
2023/04/17 07:05:16;;;;;;;46.97;23.52;;;9.80;99.90;;;;;;5093468;28;20047;-78
2023/04/17 07:07:42;;;;;;;45.00;21.73;;;8.60;99.90;;;;;;5093189;28;20480;-77
2023/04/17 07:10:07;;;;;;;47.25;23.35;;;8.60;99.90;;;;;;5094214;28;20066;-79
2023/04/17 07:12:33;;;;;;;49.53;22.50;;;8.60;99.90;;;;;;5093263;28;20036;-77
2023/04/17 07:14:59;;;;;;;47.13;21.55;;;8.70;99.90;;;;;;5094354;28;20035;-79
2023/04/17 07:17:26;;;;;;;51.17;23.33;;;8.80;99.90;;;;;;5093382;28;20036;-79
2023/04/17 07:19:52;;;;;;;48.70;24.38;;;8.80;99.90;;;;;;5093937;28;20051;-79
2023/04/17 07:22:17;;;;;;;50.65;23.52;;;8.70;99.90;;;;;;5093045;28;20097;-79
2023/04/17 07:24:43;;;;;;;42.45;21.45;;;8.90;99.90;;;;;;5092901;28;20482;-81
2023/04/17 07:27:08;;;;;;;49.78;22.90;;;9.00;99.90;;;;;;5076182;28;20373;-81
2023/04/17 07:29:34;;;;;;;45.15;21.58;;;9.70;99.90;;;;;;5092877;28;20097;-81
2023/04/17 07:32:01;;;;;;;50.85;22.50;;;9.10;99.90;;;;;;5076307;28;20047;-82
2023/04/17 07:34:30;;;;;;;43.50;23.58;;;9.10;99.90;;;;;;5093912;28;20143;-82
2023/04/17 07:36:55;;;;;;;49.28;22.98;;;9.20;99.90;;;;;;5093035;28;20055;-81
2023/04/17 07:39:21;;;;;;;47.85;23.15;;;9.50;99.90;;;;;;5093753;28;20040;-78
2023/04/17 07:41:48;;;;;;;38.95;20.98;;;9.30;99.90;;;;;;5093951;28;20052;-79
2023/04/17 07:44:13;;;;;;;43.78;23.17;;;9.30;99.90;;;;;;5093889;28;20458;-77
2023/04/17 07:46:40;;;;;;;46.40;22.67;;;9.40;99.90;;;;;;5093340;28;20076;-77
2023/04/17 07:49:06;;;;;;;43.47;22.08;;;9.40;99.90;;;;;;5093560;28;20496;-77
2023/04/17 07:51:32;;;;;;;44.80;21.25;;;9.40;99.90;;;;;;5093893;28;20064;-78
2023/04/17 07:53:58;;;;;;;45.80;21.90;;;9.50;99.90;;;;;;5092563;28;20549;-77
2023/04/17 07:56:26;;;;;;;40.30;19.05;;;9.60;99.90;;;;;;5093501;28;20136;-79
2023/04/17 07:58:52;;;;;;;44.08;20.75;;;10.60;99.90;;;;;;5092709;28;20131;-78
2023/04/17 08:01:18;;;;;;;43.78;20.80;;;9.20;99.90;;;;;;5092751;28;20052;-78
2023/04/17 08:03:44;;;;;;;43.97;21.48;;;9.80;99.90;;;;;;5093665;28;20426;-78
2023/04/17 08:06:10;;;;;;;48.17;21.23;;;9.80;99.90;;;;;;5096953;28;20123;-79
2023/04/17 08:08:36;;;;;;;41.45;21.05;;;9.90;99.90;;;;;;5097746;28;20044;-80
2023/04/17 08:11:02;;;;;;;40.80;21.20;;;10.00;99.90;;;;;;5098175;28;20062;-78
2023/04/17 08:13:31;;;;;;;50.03;21.73;;;10.00;99.90;;;;;;5098169;28;20093;-82
2023/04/17 08:15:58;;;;;;;46.08;23.45;;;10.00;99.90;;;;;;5097772;28;20448;-81
2023/04/17 08:18:24;;;;;;;45.63;22.90;;;10.40;99.90;;;;;;5096736;28;20396;-81
2023/04/17 08:20:49;;;;;;;42.28;22.15;;;10.30;99.90;;;;;;5097617;28;20043;-83
2023/04/17 08:23:15;;;;;;;43.28;21.63;;;10.30;99.90;;;;;;5096473;28;20470;-81
2023/04/17 08:25:41;;;;;;;42.88;23.08;;;10.30;99.90;;;;;;5097195;28;20036;-82
2023/04/17 08:28:06;;;;;;;41.78;22.13;;;10.50;99.90;;;;;;5079621;28;20055;-80
2023/04/17 08:30:32;;;;;;;41.20;21.73;;;10.60;99.90;;;;;;5097413;28;20043;-80
2023/04/17 08:32:57;;;;;;;41.50;22.50;;;10.70;99.90;;;;;;5097542;28;20047;-79
2023/04/17 08:35:24;;;;;;;40.72;21.48;;;10.70;99.90;;;;;;5097289;28;20048;-80
2023/04/17 08:37:50;;;;;;;44.45;21.42;;;10.90;99.90;;;;;;5078996;28;20393;-80
2023/04/17 08:40:17;;;;;;;42.80;22.50;;;10.90;99.90;;;;;;5096054;28;20048;-82
2023/04/17 08:42:46;;;;;;;37.90;21.67;;;11.00;99.90;;;;;;5095991;28;20059;-80
2023/04/17 08:45:12;;;;;;;42.92;23.13;;;12.10;99.90;;;;;;5095522;28;20036;-81
2023/04/17 08:47:42;;;;;;;36.95;22.05;;;11.00;99.90;;;;;;5096065;28;20044;-81
2023/04/17 08:50:19;;;;;;;35.78;20.00;;;11.40;99.90;;;;;;5098107;28;20079;-80
2023/04/17 08:52:46;;;;;;;41.10;21.57;;;11.50;99.90;;;;;;5097663;28;20059;-78
2023/04/17 08:55:14;;;;;;;39.60;23.05;;;11.60;99.90;;;;;;5097857;28;20123;-80
2023/04/17 08:58:02;;;;;;;36.50;21.17;;;12.20;99.90;;;;;;5096981;28;20055;-79
2023/04/17 09:00:36;;;;;;;37.35;21.17;;;11.90;99.90;;;;;;5096660;28;20055;-79
2023/04/17 09:03:03;;;;;;;34.15;20.52;;;11.90;99.90;;;;;;5096062;28;20093;-81
2023/04/17 09:05:32;;;;;;;36.33;22.48;;;11.90;99.90;;;;;;5078582;28;20048;-81
2023/04/17 09:08:15;;;;;;;36.45;22.33;;;12.10;99.90;;;;;;5096478;28;20051;-79
2023/04/17 09:10:42;;;;;;;37.20;22.00;;;12.20;99.90;;;;;;5096663;28;20048;-80
2023/04/17 09:13:08;;;;;;;40.95;21.55;;;12.40;99.90;;;;;;5078475;28;20146;-82
2023/04/17 09:15:35;;;;;;;34.35;20.15;;;13.20;99.90;;;;;;5094946;28;20063;-79
2023/04/17 09:18:02;;;;;;;37.22;19.58;;;12.30;99.90;;;;;;5095706;28;20089;-82
2023/04/17 09:20:27;;;;;;;;;;;12.60;99.90;;;;;;5096576;28;20094;-80
2023/04/17 09:23:01;;;;;;;31.05;17.90;;;13.00;99.90;;;;;;5096100;28;19975;-79
2023/04/17 09:25:27;;;;;;;33.03;19.35;;;13.00;99.90;;;;;;5096289;28;20051;-79
2023/04/17 09:27:54;;;;;;;32.30;19.77;;;13.20;99.90;;;;;;5096249;28;20048;-83
2023/04/17 09:30:20;;;;;;;29.08;18.48;;;13.00;99.90;;;;;;5078093;28;20087;-82
2023/04/17 09:32:45;;;;;;;34.00;18.90;;;13.20;99.90;;;;;;5095032;28;20082;-81
2023/04/17 09:35:24;;;;;;;30.75;18.95;;;13.30;99.90;;;;;;5095827;28;20437;-80
2023/04/17 09:37:55;;;;;;;28.35;18.73;;;14.10;99.90;;;;;;5094679;28;20037;-79
2023/04/17 09:40:22;;;;;;;31.55;18.27;;;13.20;99.90;;;;;;5094699;28;20499;-78
2023/04/17 09:42:58;;;;;;;31.92;18.50;;;13.30;99.90;;;;;;5094790;28;20537;-80
2023/04/17 09:45:31;;;;;;;27.88;18.83;;;13.80;99.90;;;;;;5094720;28;20047;-79
2023/04/17 09:47:57;;;;;;;28.42;16.92;;;13.50;99.90;;;;;;5095636;28;20040;-81
2023/04/17 09:50:23;;;;;;;26.33;17.50;;;13.60;99.90;;;;;;5095500;28;20484;-81
2023/04/17 09:52:54;;;;;;;23.85;14.82;;;13.60;99.90;;;;;;5095251;28;20077;-80
2023/04/17 09:55:25;;;;;;;23.75;16.00;;;13.80;99.90;;;;;;5095563;28;20084;-81
2023/04/17 09:57:56;;;;;;;27.27;17.15;;;13.80;99.90;;;;;;5094464;28;20136;-82
2023/04/17 10:00:25;;;;;;;21.30;14.90;;;13.90;99.90;;;;;;5094401;28;20415;-82
2023/04/17 10:02:52;;;;;;;21.98;15.30;;;14.00;99.90;;;;;;5095286;28;20475;-84
2023/04/17 10:05:23;;;;;;;21.63;13.88;;;13.90;99.90;;;;;;5077144;28;20207;-82
2023/04/17 10:07:49;;;;;;;21.95;14.18;;;13.90;99.90;;;;;;5096763;28;20076;-83
2023/04/17 10:10:32;;;;;;;19.07;12.33;;;13.60;99.90;;;;;;5100273;28;20123;-79
2023/04/17 10:13:00;;;;;;;20.20;13.13;;;14.30;99.90;;;;;;5077205;28;20086;-79
2023/04/17 10:15:27;;;;;;;17.83;12.30;;;14.20;99.90;;;;;;5095206;28;20055;-82
2023/04/17 10:17:55;;;;;;;18.30;12.25;;;14.50;99.90;;;;;;5094317;28;20036;-83
2023/04/17 10:20:23;;;;;;;22.60;11.73;;;14.60;99.90;;;;;;5093868;28;20048;-80
2023/04/17 10:22:54;;;;;;;23.88;12.18;;;14.80;99.90;;;;;;5094123;28;20076;-81
2023/04/17 10:25:25;;;;;;;17.30;11.68;;;15.10;99.90;;;;;;5095011;28;20056;-83
2023/04/17 10:27:53;;;;;;;14.38;9.93;;;15.10;99.90;;;;;;5094440;28;20084;-81
2023/04/17 10:30:21;;;;;;;18.27;10.93;;;15.10;99.90;;;;;;5094576;28;20434;-79
2023/04/17 10:33:25;;;;;;;15.35;10.02;;;14.90;99.90;;;;;;5094601;28;20048;-78
2023/04/17 10:35:51;;;;;;;15.98;10.30;;;15.10;99.90;;;;;;5093857;28;20109;-77
2023/04/17 10:38:31;;;;;;;13.40;9.23;;;15.40;99.90;;;;;;5094631;28;20048;-79
2023/04/17 10:41:01;;;;;;;16.08;10.02;;;15.40;99.90;;;;;;5094693;28;20504;-80
2023/04/17 10:43:27;;;;;;;15.68;9.77;;;15.60;99.90;;;;;;5094306;28;20086;-79
2023/04/17 10:45:58;;;;;;;13.43;8.93;;;15.90;99.90;;;;;;5093760;28;20079;-79
2023/04/17 10:48:37;;;;;;;12.52;9.32;;;15.80;99.90;;;;;;5094258;28;20043;-78
2023/04/17 10:51:23;;;;;;;17.08;9.85;;;15.60;99.90;;;;;;5090971;27;20463;-80
2023/04/17 10:53:56;;;;;;;14.32;9.93;;;15.60;99.90;;;;;;5091136;28;20048;-80
2023/04/17 10:56:37;;;;;;;14.45;9.70;;;15.70;99.90;;;;;;5091061;28;20051;-78
2023/04/17 10:59:08;;;;;;;15.50;10.07;;;16.00;99.90;;;;;;5090160;28;20079;-78
2023/04/17 11:01:46;;;;;;;14.98;9.27;;;16.60;99.90;;;;;;5088936;28;20111;-80
2023/04/17 11:04:22;;;;;;;12.52;9.43;;;16.20;99.90;;;;;;5090439;28;20055;-79
2023/04/17 11:06:48;;;;;;;14.05;8.77;;;16.20;99.90;;;;;;5091099;28;20388;-78
2023/04/17 11:09:14;;;;;;;15.50;9.52;;;16.40;99.90;;;;;;5090726;28;20040;-80
2023/04/17 11:11:42;;;;;;;13.00;9.02;;;16.40;99.90;;;;;;5090777;28;20047;-80
2023/04/17 11:14:09;;;;;;;13.07;9.32;;;16.20;99.90;;;;;;5090711;28;20472;-79
2023/04/17 11:16:40;;;;;;;16.65;9.85;;;16.10;99.90;;;;;;5090560;28;20040;-79
2023/04/17 11:19:08;;;;;;;14.27;9.15;;;16.00;99.90;;;;;;5090582;28;20040;-78
2023/04/17 11:21:39;;;;;;;14.60;8.95;;;15.90;99.90;;;;;;5090568;28;20078;-79
2023/04/17 11:24:04;;;;;;;12.35;8.52;;;16.00;99.90;;;;;;5090586;28;20090;-78
2023/04/17 11:26:30;;;;;;;12.17;8.33;;;16.00;99.90;;;;;;5089201;28;20079;-80
2023/04/17 11:28:56;;;;;;;14.60;9.93;;;16.20;99.90;;;;;;5090560;28;20127;-78
2023/04/17 11:31:21;;;;;;;13.70;9.67;;;16.80;99.90;;;;;;5090176;28;20045;-79
2023/04/17 11:33:47;;;;;;;14.17;10.10;;;16.00;99.90;;;;;;5090342;28;20049;-80
2023/04/17 11:36:12;;;;;;;16.57;8.83;;;15.90;99.90;;;;;;5090336;28;20502;-80
2023/04/17 11:38:46;;;;;;;14.60;9.20;;;15.90;99.90;;;;;;5090194;28;20036;-79
2023/04/17 11:41:12;;;;;;;13.40;9.00;;;16.10;99.90;;;;;;5090236;28;20058;-80
2023/04/17 11:43:38;;;;;;;12.07;8.87;;;16.20;99.90;;;;;;5088816;28;20551;-79
2023/04/17 11:46:04;;;;;;;20.50;8.65;;;16.30;99.90;;;;;;5071642;28;20134;-79
2023/04/17 11:48:31;;;;;;;16.33;8.90;;;16.30;99.90;;;;;;5090155;28;20044;-80
2023/04/17 11:51:03;;;;;;;13.82;8.70;;;16.40;99.90;;;;;;5089798;28;20060;-80
2023/04/17 11:53:29;;;;;;;11.80;8.85;;;16.40;99.90;;;;;;5090051;28;20400;-80
2023/04/17 11:56:15;;;;;;;15.32;10.75;;;16.30;99.90;;;;;;5088834;28;20447;-78
2023/04/17 11:58:51;;;;;;;11.90;8.80;;;16.10;99.90;;;;;;5089451;28;20048;-79
2023/04/17 12:01:19;;;;;;;14.27;9.82;;;15.90;99.90;;;;;;5083320;28;20094;-78
2023/04/17 12:03:48;;;;;;;14.32;9.90;;;16.00;99.90;;;;;;5076157;28;20555;-79
2023/04/17 12:06:14;;;;;;;16.65;11.18;;;15.80;99.90;;;;;;5074856;28;20085;-79
2023/04/17 12:08:50;;;;;;;17.00;10.93;;;15.70;99.90;;;;;;5076193;28;20044;-78
2023/04/17 12:11:24;;;;;;;18.58;11.15;;;15.60;99.90;;;;;;5075827;28;20048;-80
2023/04/17 12:13:54;;;;;;;16.27;10.45;;;15.60;99.90;;;;;;5076285;28;20127;-78
2023/04/17 12:16:21;;;;;;;16.40;11.40;;;15.50;99.90;;;;;;5075884;28;20477;-80
2023/04/17 12:18:47;;;;;;;15.88;10.80;;;15.70;99.90;;;;;;5075872;28;20048;-79
2023/04/17 12:21:13;;;;;;;14.97;10.00;;;16.10;99.90;;;;;;5076138;28;20045;-77
2023/04/17 12:23:39;;;;;;;14.90;10.30;;;16.10;99.90;;;;;;5075816;28;20396;-78
2023/04/17 12:26:05;;;;;;;15.82;9.65;;;16.40;99.90;;;;;;5075916;28;20512;-80
2023/04/17 12:28:31;;;;;;;17.97;9.97;;;16.50;99.90;;;;;;5074719;28;20123;-77
2023/04/17 12:30:57;;;;;;;14.00;9.33;;;16.90;99.90;;;;;;5075867;28;20469;-79
2023/04/17 12:33:22;;;;;;;13.93;9.90;;;16.80;99.90;;;;;;5075511;28;20179;-79
2023/04/17 12:35:48;;;;;;;15.93;9.93;;;16.80;99.90;;;;;;5075584;28;20461;-80